sensor_id;sensor_type;location;lat;lon;timestamp;pressure;altitude;pressure_sealevel;temperature;humidity
74544;BME280;63016;55.030;38.710;2024-01-10T00:01:35;98856.13;;;-3.09;64.43
74544;BME280;63016;55.030;38.710;2024-01-10T00:04:00;98849.16;;;-3.07;64.95
74544;BME280;63016;55.030;38.710;2024-01-10T00:06:26;98849.06;;;-3.05;64.67
74544;BME280;63016;55.030;38.710;2024-01-10T00:08:51;98836.91;;;-3.02;63.98
74544;BME280;63016;55.030;38.710;2024-01-10T00:11:16;98835.03;;;-3.00;64.35
74544;BME280;63016;55.030;38.710;2024-01-10T00:13:42;98830.56;;;-2.96;64.62
74544;BME280;63016;55.030;38.710;2024-01-10T00:16:07;98809.22;;;-2.95;64.46
74544;BME280;63016;55.030;38.710;2024-01-10T00:18:33;98808.19;;;-2.93;64.51
74544;BME280;63016;55.030;38.710;2024-01-10T00:20:58;98799.63;;;-2.92;64.41
74544;BME280;63016;55.030;38.710;2024-01-10T00:23:24;98796.03;;;-2.89;64.70
74544;BME280;63016;55.030;38.710;2024-01-10T00:25:49;98789.19;;;-2.89;64.52
74544;BME280;63016;55.030;38.710;2024-01-10T00:28:15;98786.41;;;-2.86;64.69
74544;BME280;63016;55.030;38.710;2024-01-10T00:30:43;98783.66;;;-2.82;64.85
74544;BME280;63016;55.030;38.710;2024-01-10T00:33:09;98773.25;;;-2.79;64.91
74544;BME280;63016;55.030;38.710;2024-01-10T00:35:34;98758.50;;;-2.76;64.67
74544;BME280;63016;55.030;38.710;2024-01-10T00:37:59;98752.50;;;-2.75;64.41
74544;BME280;63016;55.030;38.710;2024-01-10T00:40:25;98750.63;;;-2.73;64.63
74544;BME280;63016;55.030;38.710;2024-01-10T00:42:50;98741.03;;;-2.69;65.01
74544;BME280;63016;55.030;38.710;2024-01-10T00:45:16;98729.75;;;-2.67;64.40
74544;BME280;63016;55.030;38.710;2024-01-10T00:47:41;98726.19;;;-2.64;64.76
74544;BME280;63016;55.030;38.710;2024-01-10T00:50:07;98722.69;;;-2.63;65.03
74544;BME280;63016;55.030;38.710;2024-01-10T00:52:32;98724.22;;;-2.61;64.65
74544;BME280;63016;55.030;38.710;2024-01-10T00:54:58;98718.88;;;-2.58;65.16
74544;BME280;63016;55.030;38.710;2024-01-10T00:57:23;98716.13;;;-2.54;64.91
74544;BME280;63016;55.030;38.710;2024-01-10T00:59:48;98715.91;;;-2.51;64.53
74544;BME280;63016;55.030;38.710;2024-01-10T01:02:14;98711.38;;;-2.48;65.05
74544;BME280;63016;55.030;38.710;2024-01-10T01:04:39;98723.00;;;-2.44;65.22
74544;BME280;63016;55.030;38.710;2024-01-10T01:07:04;98723.59;;;-2.40;64.38
74544;BME280;63016;55.030;38.710;2024-01-10T01:09:30;98726.75;;;-2.37;64.70
74544;BME280;63016;55.030;38.710;2024-01-10T01:11:55;98725.56;;;-2.33;64.53
74544;BME280;63016;55.030;38.710;2024-01-10T01:14:20;98716.06;;;-2.30;65.28
74544;BME280;63016;55.030;38.710;2024-01-10T01:16:46;98722.69;;;-2.28;64.85
74544;BME280;63016;55.030;38.710;2024-01-10T01:19:11;98713.06;;;-2.24;65.07
74544;BME280;63016;55.030;38.710;2024-01-10T01:21:37;98720.38;;;-2.20;65.22
74544;BME280;63016;55.030;38.710;2024-01-10T01:24:02;98717.47;;;-2.15;64.79
74544;BME280;63016;55.030;38.710;2024-01-10T01:26:28;98714.59;;;-2.11;65.22
74544;BME280;63016;55.030;38.710;2024-01-10T01:28:54;98710.06;;;-2.07;64.65
74544;BME280;63016;55.030;38.710;2024-01-10T01:31:19;98714.94;;;-2.04;64.95
74544;BME280;63016;55.030;38.710;2024-01-10T01:33:44;98718.09;;;-2.00;64.86
74544;BME280;63016;55.030;38.710;2024-01-10T01:36:10;98717.75;;;-1.96;65.41
74544;BME280;63016;55.030;38.710;2024-01-10T01:38:35;98711.47;;;-1.92;65.37
74544;BME280;63016;55.030;38.710;2024-01-10T01:41:01;98733.31;;;-1.88;65.02
74544;BME280;63016;55.030;38.710;2024-01-10T01:43:28;98726.22;;;-1.84;65.35
74544;BME280;63016;55.030;38.710;2024-01-10T01:45:54;98734.34;;;-1.79;65.41
74544;BME280;63016;55.030;38.710;2024-01-10T01:48:20;98736.56;;;-1.74;65.73
74544;BME280;63016;55.030;38.710;2024-01-10T01:50:46;98719.13;;;-1.69;64.94
74544;BME280;63016;55.030;38.710;2024-01-10T01:53:13;98731.56;;;-1.65;65.03
74544;BME280;63016;55.030;38.710;2024-01-10T01:55:39;98731.94;;;-1.58;65.36
74544;BME280;63016;55.030;38.710;2024-01-10T01:58:05;98735.75;;;-1.52;65.39
74544;BME280;63016;55.030;38.710;2024-01-10T02:00:30;98733.66;;;-1.47;64.83
74544;BME280;63016;55.030;38.710;2024-01-10T02:02:57;98743.53;;;-1.43;65.75
74544;BME280;63016;55.030;38.710;2024-01-10T02:05:24;98732.13;;;-1.39;64.99
74544;BME280;63016;55.030;38.710;2024-01-10T02:07:49;98735.16;;;-1.34;65.37
74544;BME280;63016;55.030;38.710;2024-01-10T02:10:15;98743.16;;;-1.27;65.15
74544;BME280;63016;55.030;38.710;2024-01-10T02:12:40;98741.19;;;-1.23;65.35
74544;BME280;63016;55.030;38.710;2024-01-10T02:15:06;98741.50;;;-1.17;65.81
74544;BME280;63016;55.030;38.710;2024-01-10T02:17:31;98749.53;;;-1.10;65.97
74544;BME280;63016;55.030;38.710;2024-01-10T02:20:12;98746.50;;;-1.04;66.05
74544;BME280;63016;55.030;38.710;2024-01-10T02:22:38;98752.88;;;-0.98;65.77
74544;BME280;63016;55.030;38.710;2024-01-10T02:25:05;98757.63;;;-0.94;65.88
74544;BME280;63016;55.030;38.710;2024-01-10T02:27:30;98758.09;;;-0.89;66.04
74544;BME280;63016;55.030;38.710;2024-01-10T02:29:55;98767.97;;;-0.84;65.75
74544;BME280;63016;55.030;38.710;2024-01-10T02:32:21;98755.75;;;-0.81;65.52
74544;BME280;63016;55.030;38.710;2024-01-10T02:34:48;98778.31;;;-0.74;65.79
74544;BME280;63016;55.030;38.710;2024-01-10T02:37:13;98788.19;;;-0.70;65.89
74544;BME280;63016;55.030;38.710;2024-01-10T02:39:39;98798.06;;;-0.65;65.75
74544;BME280;63016;55.030;38.710;2024-01-10T02:42:04;98791.91;;;-0.63;65.53
74544;BME280;63016;55.030;38.710;2024-01-10T02:44:30;98811.31;;;-0.60;65.90
74544;BME280;63016;55.030;38.710;2024-01-10T02:46:55;98819.59;;;-0.57;65.49
74544;BME280;63016;55.030;38.710;2024-01-10T02:49:20;98822.72;;;-0.53;65.67
74544;BME280;63016;55.030;38.710;2024-01-10T02:51:46;98844.03;;;-0.53;65.98
74544;BME280;63016;55.030;38.710;2024-01-10T02:54:11;98857.53;;;-0.50;65.90
74544;BME280;63016;55.030;38.710;2024-01-10T02:56:36;98864.41;;;-0.51;65.07
74544;BME280;63016;55.030;38.710;2024-01-10T02:59:02;98871.50;;;-0.55;65.18
74544;BME280;63016;55.030;38.710;2024-01-10T03:01:27;98902.50;;;-0.58;64.98
74544;BME280;63016;55.030;38.710;2024-01-10T03:03:53;98900.41;;;-0.64;65.12
74544;BME280;63016;55.030;38.710;2024-01-10T03:06:18;98908.69;;;-0.71;65.19
74544;BME280;63016;55.030;38.710;2024-01-10T03:08:43;98921.84;;;-0.76;65.09
74544;BME280;63016;55.030;38.710;2024-01-10T03:11:09;98938.38;;;-0.80;64.99
74544;BME280;63016;55.030;38.710;2024-01-10T03:13:34;98942.44;;;-0.89;64.91
74544;BME280;63016;55.030;38.710;2024-01-10T03:15:59;98960.38;;;-1.00;64.69
74544;BME280;63016;55.030;38.710;2024-01-10T03:18:25;98970.63;;;-1.11;64.78
74544;BME280;63016;55.030;38.710;2024-01-10T03:20:50;98979.66;;;-1.18;64.78
74544;BME280;63016;55.030;38.710;2024-01-10T03:23:16;98984.44;;;-1.25;64.47
74544;BME280;63016;55.030;38.710;2024-01-10T03:25:41;99001.25;;;-1.34;64.52
74544;BME280;63016;55.030;38.710;2024-01-10T03:28:06;99011.56;;;-1.46;63.80
74544;BME280;63016;55.030;38.710;2024-01-10T03:30:32;99019.53;;;-1.62;64.15
74544;BME280;63016;55.030;38.710;2024-01-10T03:32:57;99026.06;;;-1.82;64.23
74544;BME280;63016;55.030;38.710;2024-01-10T03:35:23;99037.47;;;-1.99;63.58
74544;BME280;63016;55.030;38.710;2024-01-10T03:37:48;99042.63;;;-2.12;64.68
74544;BME280;63016;55.030;38.710;2024-01-10T03:40:13;99049.31;;;-2.22;64.13
74544;BME280;63016;55.030;38.710;2024-01-10T03:42:39;99054.22;;;-2.31;63.77
74544;BME280;63016;55.030;38.710;2024-01-10T03:45:05;99070.06;;;-2.39;64.24
74544;BME280;63016;55.030;38.710;2024-01-10T03:47:30;99080.78;;;-2.47;64.47
74544;BME280;63016;55.030;38.710;2024-01-10T03:49:55;99092.34;;;-2.54;64.29
74544;BME280;63016;55.030;38.710;2024-01-10T03:52:21;99100.78;;;-2.66;63.73
74544;BME280;63016;55.030;38.710;2024-01-10T03:54:46;99115.09;;;-2.76;64.31
74544;BME280;63016;55.030;38.710;2024-01-10T03:57:12;99119.78;;;-2.83;64.01
74544;BME280;63016;55.030;38.710;2024-01-10T03:59:37;99134.88;;;-2.93;63.73
74544;BME280;63016;55.030;38.710;2024-01-10T04:02:02;99149.25;;;-3.04;63.90
74544;BME280;63016;55.030;38.710;2024-01-10T04:04:28;99154.84;;;-3.12;63.91
74544;BME280;63016;55.030;38.710;2024-01-10T04:06:54;99164.63;;;-3.19;63.75
74544;BME280;63016;55.030;38.710;2024-01-10T04:09:19;99173.66;;;-3.27;63.47
74544;BME280;63016;55.030;38.710;2024-01-10T04:11:45;99189.44;;;-3.35;63.63
74544;BME280;63016;55.030;38.710;2024-01-10T04:14:10;99196.66;;;-3.42;63.71
74544;BME280;63016;55.030;38.710;2024-01-10T04:16:36;99217.44;;;-3.48;63.69
74544;BME280;63016;55.030;38.710;2024-01-10T04:19:01;99212.91;;;-3.57;63.27
74544;BME280;63016;55.030;38.710;2024-01-10T04:21:26;99224.47;;;-3.66;63.15
74544;BME280;63016;55.030;38.710;2024-01-10T04:23:52;99234.22;;;-3.72;63.48
74544;BME280;63016;55.030;38.710;2024-01-10T04:26:17;99244.69;;;-3.77;63.38
74544;BME280;63016;55.030;38.710;2024-01-10T04:28:43;99248.66;;;-3.87;63.18
74544;BME280;63016;55.030;38.710;2024-01-10T04:31:08;99272.06;;;-3.95;63.54
74544;BME280;63016;55.030;38.710;2024-01-10T04:33:33;99283.34;;;-3.99;63.75
74544;BME280;63016;55.030;38.710;2024-01-10T04:35:59;99292.06;;;-4.03;63.59
74544;BME280;63016;55.030;38.710;2024-01-10T04:38:25;99305.97;;;-4.08;63.35
74544;BME280;63016;55.030;38.710;2024-01-10T04:40:51;99312.34;;;-4.16;63.36
74544;BME280;63016;55.030;38.710;2024-01-10T04:43:17;99320.31;;;-4.22;63.27
74544;BME280;63016;55.030;38.710;2024-01-10T04:45:42;99329.09;;;-4.27;63.09
74544;BME280;63016;55.030;38.710;2024-01-10T04:48:08;99348.19;;;-4.34;63.38
74544;BME280;63016;55.030;38.710;2024-01-10T04:50:34;99361.34;;;-4.42;63.28
74544;BME280;63016;55.030;38.710;2024-01-10T04:52:59;99372.78;;;-4.49;63.50
74544;BME280;63016;55.030;38.710;2024-01-10T04:55:25;99382.31;;;-4.53;63.41
74544;BME280;63016;55.030;38.710;2024-01-10T04:57:50;99398.63;;;-4.57;62.87
74544;BME280;63016;55.030;38.710;2024-01-10T05:00:15;99398.22;;;-4.65;62.97
74544;BME280;63016;55.030;38.710;2024-01-10T05:02:41;99419.00;;;-4.73;62.87
74544;BME280;63016;55.030;38.710;2024-01-10T05:05:06;99429.56;;;-4.80;62.83
74544;BME280;63016;55.030;38.710;2024-01-10T05:07:32;99438.44;;;-4.87;63.09
74544;BME280;63016;55.030;38.710;2024-01-10T05:09:57;99441.13;;;-4.91;62.82
74544;BME280;63016;55.030;38.710;2024-01-10T05:12:22;99443.09;;;-4.96;63.15
74544;BME280;63016;55.030;38.710;2024-01-10T05:14:48;99449.31;;;-5.01;62.72
74544;BME280;63016;55.030;38.710;2024-01-10T05:17:13;99464.03;;;-5.08;62.72
74544;BME280;63016;55.030;38.710;2024-01-10T05:19:39;99463.47;;;-5.13;62.85
74544;BME280;63016;55.030;38.710;2024-01-10T05:22:04;99480.69;;;-5.18;62.88
74544;BME280;63016;55.030;38.710;2024-01-10T05:24:30;99492.75;;;-5.22;62.75
74544;BME280;63016;55.030;38.710;2024-01-10T05:26:55;99499.69;;;-5.25;62.65
74544;BME280;63016;55.030;38.710;2024-01-10T05:29:21;99509.19;;;-5.29;62.46
74544;BME280;63016;55.030;38.710;2024-01-10T05:31:49;99520.47;;;-5.34;62.54
74544;BME280;63016;55.030;38.710;2024-01-10T05:34:14;99536.84;;;-5.40;62.66
74544;BME280;63016;55.030;38.710;2024-01-10T05:36:40;99537.16;;;-5.46;62.58
74544;BME280;63016;55.030;38.710;2024-01-10T05:39:05;99542.47;;;-5.51;62.55
74544;BME280;63016;55.030;38.710;2024-01-10T05:41:31;99554.56;;;-5.56;62.52
74544;BME280;63016;55.030;38.710;2024-01-10T05:43:56;99560.72;;;-5.61;62.41
74544;BME280;63016;55.030;38.710;2024-01-10T05:46:21;99568.56;;;-5.66;62.34
74544;BME280;63016;55.030;38.710;2024-01-10T05:48:47;99571.41;;;-5.72;62.21
74544;BME280;63016;55.030;38.710;2024-01-10T05:51:13;99583.50;;;-5.77;62.33
74544;BME280;63016;55.030;38.710;2024-01-10T05:53:39;99581.31;;;-5.85;62.08
74544;BME280;63016;55.030;38.710;2024-01-10T05:56:05;99587.72;;;-5.95;62.17
74544;BME280;63016;55.030;38.710;2024-01-10T05:58:31;99609.13;;;-6.01;62.17
74544;BME280;63016;55.030;38.710;2024-01-10T06:00:56;99613.69;;;-6.07;62.30
74544;BME280;63016;55.030;38.710;2024-01-10T06:03:21;99622.41;;;-6.13;62.18
74544;BME280;63016;55.030;38.710;2024-01-10T06:05:47;99627.66;;;-6.17;62.26
74544;BME280;63016;55.030;38.710;2024-01-10T06:08:12;99636.31;;;-6.22;62.25
74544;BME280;63016;55.030;38.710;2024-01-10T06:10:39;99641.59;;;-6.26;62.14
74544;BME280;63016;55.030;38.710;2024-01-10T06:13:04;99644.31;;;-6.31;62.41
74544;BME280;63016;55.030;38.710;2024-01-10T06:15:30;99650.38;;;-6.33;62.54
74544;BME280;63016;55.030;38.710;2024-01-10T06:17:55;99651.22;;;-6.34;62.32
74544;BME280;63016;55.030;38.710;2024-01-10T06:20:21;99663.19;;;-6.36;62.22
74544;BME280;63016;55.030;38.710;2024-01-10T06:22:46;99676.81;;;-6.39;62.43
74544;BME280;63016;55.030;38.710;2024-01-10T06:25:11;99674.34;;;-6.40;62.28
74544;BME280;63016;55.030;38.710;2024-01-10T06:27:37;99679.53;;;-6.43;62.22
74544;BME280;63016;55.030;38.710;2024-01-10T06:30:02;99689.84;;;-6.47;62.23
74544;BME280;63016;55.030;38.710;2024-01-10T06:32:28;99698.34;;;-6.48;62.31
74544;BME280;63016;55.030;38.710;2024-01-10T06:34:53;99706.81;;;-6.49;62.46
74544;BME280;63016;55.030;38.710;2024-01-10T06:37:19;99723.84;;;-6.51;61.98
74544;BME280;63016;55.030;38.710;2024-01-10T06:39:44;99721.41;;;-6.54;62.12
74544;BME280;63016;55.030;38.710;2024-01-10T06:42:10;99727.44;;;-6.56;62.03
74544;BME280;63016;55.030;38.710;2024-01-10T06:44:37;99735.19;;;-6.59;61.98
74544;BME280;63016;55.030;38.710;2024-01-10T06:47:02;99751.38;;;-6.62;62.00
74544;BME280;63016;55.030;38.710;2024-01-10T06:49:29;99755.78;;;-6.67;62.15
74544;BME280;63016;55.030;38.710;2024-01-10T06:51:54;99766.94;;;-6.71;62.07
74544;BME280;63016;55.030;38.710;2024-01-10T06:54:19;99764.50;;;-6.74;62.08
74544;BME280;63016;55.030;38.710;2024-01-10T06:56:45;99775.56;;;-6.75;62.14
74544;BME280;63016;55.030;38.710;2024-01-10T06:59:11;99774.91;;;-6.80;62.27
74544;BME280;63016;55.030;38.710;2024-01-10T07:01:36;99786.81;;;-6.82;62.28
74544;BME280;63016;55.030;38.710;2024-01-10T07:04:04;99792.06;;;-6.87;61.80
74544;BME280;63016;55.030;38.710;2024-01-10T07:06:30;99805.69;;;-6.89;62.02
74544;BME280;63016;55.030;38.710;2024-01-10T07:08:55;99808.34;;;-6.92;62.51
74544;BME280;63016;55.030;38.710;2024-01-10T07:11:20;99821.91;;;-6.93;62.28
74544;BME280;63016;55.030;38.710;2024-01-10T07:13:47;99828.75;;;-6.95;61.89
74544;BME280;63016;55.030;38.710;2024-01-10T07:16:12;99830.50;;;-6.97;62.01
74544;BME280;63016;55.030;38.710;2024-01-10T07:18:40;99844.91;;;-6.98;62.51
74544;BME280;63016;55.030;38.710;2024-01-10T07:21:05;99842.47;;;-7.01;62.26
74544;BME280;63016;55.030;38.710;2024-01-10T07:23:31;99855.22;;;-7.03;62.06
74544;BME280;63016;55.030;38.710;2024-01-10T07:25:57;99859.53;;;-7.05;62.09
74544;BME280;63016;55.030;38.710;2024-01-10T07:28:22;99854.47;;;-7.06;62.20
74544;BME280;63016;55.030;38.710;2024-01-10T07:30:47;99865.53;;;-7.07;61.99
74544;BME280;63016;55.030;38.710;2024-01-10T07:33:13;99868.94;;;-7.08;62.01
74544;BME280;63016;55.030;38.710;2024-01-10T07:35:38;99870.72;;;-7.10;62.07
74544;BME280;63016;55.030;38.710;2024-01-10T07:38:04;99880.00;;;-7.11;62.14
74544;BME280;63016;55.030;38.710;2024-01-10T07:40:32;99884.25;;;-7.11;62.17
74544;BME280;63016;55.030;38.710;2024-01-10T07:42:58;99895.22;;;-7.11;62.19
74544;BME280;63016;55.030;38.710;2024-01-10T07:45:23;99902.81;;;-7.11;61.94
74544;BME280;63016;55.030;38.710;2024-01-10T07:47:48;99902.06;;;-7.13;61.80
74544;BME280;63016;55.030;38.710;2024-01-10T07:50:14;99907.22;;;-7.16;62.19
74544;BME280;63016;55.030;38.710;2024-01-10T07:52:39;99908.19;;;-7.18;62.29
74544;BME280;63016;55.030;38.710;2024-01-10T07:55:05;99906.53;;;-7.19;62.27
74544;BME280;63016;55.030;38.710;2024-01-10T07:57:31;99906.56;;;-7.21;62.16
74544;BME280;63016;55.030;38.710;2024-01-10T07:59:57;99909.16;;;-7.22;62.14
74544;BME280;63016;55.030;38.710;2024-01-10T08:02:23;99916.72;;;-7.21;62.34
74544;BME280;63016;55.030;38.710;2024-01-10T08:04:49;99923.41;;;-7.18;62.16
74544;BME280;63016;55.030;38.710;2024-01-10T08:07:14;99928.47;;;-7.18;62.28
74544;BME280;63016;55.030;38.710;2024-01-10T08:09:39;99935.09;;;-7.14;62.28
74544;BME280;63016;55.030;38.710;2024-01-10T08:12:05;99943.53;;;-7.14;62.29
74544;BME280;63016;55.030;38.710;2024-01-10T08:14:30;99941.81;;;-7.13;62.65
74544;BME280;63016;55.030;38.710;2024-01-10T08:16:56;99948.47;;;-7.11;62.63
74544;BME280;63016;55.030;38.710;2024-01-10T08:19:25;99951.78;;;-7.09;62.72
74544;BME280;63016;55.030;38.710;2024-01-10T08:21:51;99965.28;;;-7.08;62.55
74544;BME280;63016;55.030;38.710;2024-01-10T08:24:18;99968.59;;;-7.06;62.54
74544;BME280;63016;55.030;38.710;2024-01-10T08:26:43;99972.84;;;-7.07;62.30
74544;BME280;63016;55.030;38.710;2024-01-10T08:29:08;99970.38;;;-7.08;61.94
74544;BME280;63016;55.030;38.710;2024-01-10T08:31:34;99977.09;;;-7.07;62.37
74544;BME280;63016;55.030;38.710;2024-01-10T08:33:59;99981.28;;;-7.06;62.54
74544;BME280;63016;55.030;38.710;2024-01-10T08:36:25;99975.34;;;-7.05;62.41
74544;BME280;63016;55.030;38.710;2024-01-10T08:38:50;99984.53;;;-7.03;62.58
74544;BME280;63016;55.030;38.710;2024-01-10T08:41:16;99981.03;;;-6.99;63.03
74544;BME280;63016;55.030;38.710;2024-01-10T08:43:42;99984.31;;;-6.96;62.64
74544;BME280;63016;55.030;38.710;2024-01-10T08:46:08;99996.03;;;-6.92;62.61
74544;BME280;63016;55.030;38.710;2024-01-10T08:48:33;99984.97;;;-6.91;62.72
74544;BME280;63016;55.030;38.710;2024-01-10T08:50:59;99996.81;;;-6.90;62.48
74544;BME280;63016;55.030;38.710;2024-01-10T08:53:25;99997.56;;;-6.88;62.54
74544;BME280;63016;55.030;38.710;2024-01-10T08:55:50;99997.56;;;-6.88;62.61
74544;BME280;63016;55.030;38.710;2024-01-10T08:58:16;99994.94;;;-6.85;62.61
74544;BME280;63016;55.030;38.710;2024-01-10T09:00:41;99995.69;;;-6.83;62.55
74544;BME280;63016;55.030;38.710;2024-01-10T09:03:06;99999.06;;;-6.83;62.56
74544;BME280;63016;55.030;38.710;2024-01-10T09:05:32;99997.34;;;-6.82;62.61
74544;BME280;63016;55.030;38.710;2024-01-10T09:07:57;99989.75;;;-6.82;62.60
74544;BME280;63016;55.030;38.710;2024-01-10T09:10:23;99998.97;;;-6.80;62.76
74544;BME280;63016;55.030;38.710;2024-01-10T09:12:48;99998.09;;;-6.79;62.76
74544;BME280;63016;55.030;38.710;2024-01-10T09:15:14;100002.22;;;-6.76;62.82
74544;BME280;63016;55.030;38.710;2024-01-10T09:17:43;100016.50;;;-6.74;62.37
74544;BME280;63016;55.030;38.710;2024-01-10T09:20:09;100009.72;;;-6.73;62.63
74544;BME280;63016;55.030;38.710;2024-01-10T09:22:35;100016.44;;;-6.72;62.77
74544;BME280;63016;55.030;38.710;2024-01-10T09:25:00;100008.84;;;-6.72;62.65
74544;BME280;63016;55.030;38.710;2024-01-10T09:27:35;100018.94;;;-6.70;62.66
74544;BME280;63016;55.030;38.710;2024-01-10T09:30:01;100024.03;;;-6.70;62.42
74544;BME280;63016;55.030;38.710;2024-01-10T09:32:33;100037.47;;;-6.68;62.42
74544;BME280;63016;55.030;38.710;2024-01-10T09:35:00;100038.34;;;-6.69;62.66
74544;BME280;63016;55.030;38.710;2024-01-10T09:37:25;100037.53;;;-6.70;62.31
74544;BME280;63016;55.030;38.710;2024-01-10T09:39:50;100036.75;;;-6.72;62.40
74544;BME280;63016;55.030;38.710;2024-01-10T09:42:17;100034.25;;;-6.74;62.25
74544;BME280;63016;55.030;38.710;2024-01-10T09:44:44;100040.28;;;-6.76;62.44
74544;BME280;63016;55.030;38.710;2024-01-10T09:47:10;100034.41;;;-6.78;62.45
74544;BME280;63016;55.030;38.710;2024-01-10T09:49:36;100036.06;;;-6.77;62.20
74544;BME280;63016;55.030;38.710;2024-01-10T09:52:03;100036.19;;;-6.80;62.46
74544;BME280;63016;55.030;38.710;2024-01-10T09:54:29;100047.16;;;-6.80;62.21
74544;BME280;63016;55.030;38.710;2024-01-10T09:56:56;100042.09;;;-6.80;62.44
74544;BME280;63016;55.030;38.710;2024-01-10T09:59:21;100041.28;;;-6.80;62.15
74544;BME280;63016;55.030;38.710;2024-01-10T10:01:47;100036.06;;;-6.77;62.58
74544;BME280;63016;55.030;38.710;2024-01-10T10:04:12;100045.41;;;-6.78;62.45
74544;BME280;63016;55.030;38.710;2024-01-10T10:06:38;100052.97;;;-6.76;62.52
74544;BME280;63016;55.030;38.710;2024-01-10T10:09:03;100054.63;;;-6.75;62.38
74544;BME280;63016;55.030;38.710;2024-01-10T10:11:29;100058.00;;;-6.75;62.36
74544;BME280;63016;55.030;38.710;2024-01-10T10:13:55;100072.31;;;-6.74;62.45
74544;BME280;63016;55.030;38.710;2024-01-10T10:16:23;100066.41;;;-6.74;62.42
74544;BME280;63016;55.030;38.710;2024-01-10T10:18:50;100078.22;;;-6.73;62.51
74544;BME280;63016;55.030;38.710;2024-01-10T10:21:18;100084.13;;;-6.73;62.48
74544;BME280;63016;55.030;38.710;2024-01-10T10:23:57;100078.22;;;-6.73;62.87
74544;BME280;63016;55.030;38.710;2024-01-10T10:26:22;100086.66;;;-6.73;62.55
74544;BME280;63016;55.030;38.710;2024-01-10T10:28:49;100083.25;;;-6.71;62.41
74544;BME280;63016;55.030;38.710;2024-01-10T10:31:18;100076.50;;;-6.73;62.59
74544;BME280;63016;55.030;38.710;2024-01-10T10:33:45;100073.97;;;-6.73;62.16
74544;BME280;63016;55.030;38.710;2024-01-10T10:36:10;100079.16;;;-6.76;62.26
74544;BME280;63016;55.030;38.710;2024-01-10T10:38:36;100083.44;;;-6.78;62.49
74544;BME280;63016;55.030;38.710;2024-01-10T10:41:05;100084.41;;;-6.80;62.38
74544;BME280;63016;55.030;38.710;2024-01-10T10:43:35;100081.84;;;-6.80;62.03
74544;BME280;63016;55.030;38.710;2024-01-10T10:46:02;100089.47;;;-6.80;62.46
74544;BME280;63016;55.030;38.710;2024-01-10T10:48:28;100088.59;;;-6.79;62.46
74544;BME280;63016;55.030;38.710;2024-01-10T10:53:54;100091.19;;;-6.81;62.30
74544;BME280;63016;55.030;38.710;2024-01-10T10:56:20;100092.84;;;-6.80;62.79
74544;BME280;63016;55.030;38.710;2024-01-10T10:58:45;100097.91;;;-6.80;62.36
74544;BME280;63016;55.030;38.710;2024-01-10T11:01:11;100106.34;;;-6.79;62.29
74544;BME280;63016;55.030;38.710;2024-01-10T11:03:38;100113.97;;;-6.79;62.31
74544;BME280;63016;55.030;38.710;2024-01-10T11:06:09;100114.84;;;-6.80;62.54
74544;BME280;63016;55.030;38.710;2024-01-10T11:08:36;100113.06;;;-6.78;62.47
74544;BME280;63016;55.030;38.710;2024-01-10T11:11:03;100117.25;;;-6.77;62.46
74544;BME280;63016;55.030;38.710;2024-01-10T11:18:42;100123.94;;;-6.75;62.30
74544;BME280;63016;55.030;38.710;2024-01-10T11:21:16;100127.41;;;-6.77;62.42
74544;BME280;63016;55.030;38.710;2024-01-10T11:23:44;100129.19;;;-6.79;62.41
74544;BME280;63016;55.030;38.710;2024-01-10T11:26:11;100130.06;;;-6.80;62.50
74544;BME280;63016;55.030;38.710;2024-01-10T11:28:38;100132.59;;;-6.80;62.43
74544;BME280;63016;55.030;38.710;2024-01-10T11:31:03;100137.66;;;-6.80;62.25
74544;BME280;63016;55.030;38.710;2024-01-10T11:33:31;100131.81;;;-6.82;62.22
74544;BME280;63016;55.030;38.710;2024-01-10T11:38:42;100118.41;;;-6.86;62.29
74544;BME280;63016;55.030;38.710;2024-01-10T11:41:10;100120.06;;;-6.85;62.40
74544;BME280;63016;55.030;38.710;2024-01-10T11:43:35;100120.94;;;-6.86;62.56
74544;BME280;63016;55.030;38.710;2024-01-10T11:46:02;100121.78;;;-6.85;62.55
74544;BME280;63016;55.030;38.710;2024-01-10T11:48:31;100120.13;;;-6.86;62.24
74544;BME280;63016;55.030;38.710;2024-01-10T11:50:59;100114.25;;;-6.88;62.39
74544;BME280;63016;55.030;38.710;2024-01-10T11:53:40;100114.25;;;-6.88;62.24
74544;BME280;63016;55.030;38.710;2024-01-10T11:56:10;100107.63;;;-6.92;62.22
74544;BME280;63016;55.030;38.710;2024-01-10T12:01:20;100118.72;;;-6.95;62.46
74544;BME280;63016;55.030;38.710;2024-01-10T12:03:46;100118.72;;;-6.95;62.36
74544;BME280;63016;55.030;38.710;2024-01-10T12:06:12;100122.97;;;-6.95;62.64
74544;BME280;63016;55.030;38.710;2024-01-10T12:08:38;100116.19;;;-6.96;62.62
74544;BME280;63016;55.030;38.710;2024-01-10T12:11:03;100118.72;;;-6.95;62.44
74544;BME280;63016;55.030;38.710;2024-01-10T12:13:29;100119.53;;;-6.94;62.48
74544;BME280;63016;55.030;38.710;2024-01-10T12:15:56;100124.59;;;-6.94;62.68
74544;BME280;63016;55.030;38.710;2024-01-10T12:18:21;100128.03;;;-6.95;62.34
74544;BME280;63016;55.030;38.710;2024-01-10T12:20:47;100132.31;;;-6.97;62.14
74544;BME280;63016;55.030;38.710;2024-01-10T12:23:12;100120.50;;;-6.99;62.44
74544;BME280;63016;55.030;38.710;2024-01-10T12:25:37;100121.41;;;-7.00;62.48
74544;BME280;63016;55.030;38.710;2024-01-10T12:28:03;100140.03;;;-7.01;62.48
74544;BME280;63016;55.030;38.710;2024-01-10T12:30:29;100138.34;;;-7.02;62.69
74544;BME280;63016;55.030;38.710;2024-01-10T12:32:58;100140.88;;;-7.02;62.64
74544;BME280;63016;55.030;38.710;2024-01-10T12:35:23;100151.91;;;-7.03;62.54
74544;BME280;63016;55.030;38.710;2024-01-10T12:37:58;100153.56;;;-7.02;62.38
74544;BME280;63016;55.030;38.710;2024-01-10T12:40:24;100158.63;;;-7.02;62.59
74544;BME280;63016;55.030;38.710;2024-01-10T12:42:49;100157.72;;;-6.99;62.72
74544;BME280;63016;55.030;38.710;2024-01-10T12:45:26;100165.28;;;-6.97;62.50
74544;BME280;63016;55.030;38.710;2024-01-10T12:47:52;100162.72;;;-6.96;62.49
74544;BME280;63016;55.030;38.710;2024-01-10T12:50:18;100158.47;;;-6.95;62.71
74544;BME280;63016;55.030;38.710;2024-01-10T12:52:44;100158.47;;;-6.95;62.57
74544;BME280;63016;55.030;38.710;2024-01-10T12:55:09;100161.03;;;-6.97;62.24